createdAt,value
2018-12-03T00:01:52.592Z,0.73
2018-12-03T00:04:56.076Z,0.60
2018-12-03T00:07:59.667Z,0.73
2018-12-03T00:11:03.310Z,0.60
2018-12-03T00:14:06.937Z,0.70
2018-12-03T00:17:10.502Z,0.70
2018-12-03T00:20:14.125Z,0.70
2018-12-03T00:23:18.750Z,0.60
2018-12-03T00:26:23.322Z,0.57
2018-12-03T00:29:28.178Z,0.60
2018-12-03T00:32:31.873Z,0.60
2018-12-03T00:35:36.455Z,0.70
2018-12-03T00:38:41.074Z,0.60
2018-12-03T00:41:44.653Z,0.60
2018-12-03T00:44:48.283Z,0.60
2018-12-03T00:47:51.929Z,0.80
2018-12-03T00:50:55.420Z,0.53
2018-12-03T00:53:58.988Z,0.60
2018-12-03T00:57:02.625Z,0.60
2018-12-03T01:00:08.810Z,0.60
2018-12-03T01:03:12.500Z,0.70
2018-12-03T01:06:16.217Z,0.60
2018-12-03T01:09:19.797Z,0.70
2018-12-03T01:12:23.256Z,0.70
2018-12-03T01:15:26.886Z,0.50
2018-12-03T01:18:30.414Z,0.70
2018-12-03T01:21:33.974Z,0.53
2018-12-03T01:24:37.530Z,0.60
2018-12-03T01:27:41.363Z,0.50
2018-12-03T01:30:44.865Z,0.50
2018-12-03T01:33:48.503Z,0.70
2018-12-03T01:36:52.134Z,0.67
2018-12-03T01:39:55.653Z,0.70
2018-12-03T01:42:59.175Z,0.87
2018-12-03T01:46:02.704Z,0.70
2018-12-03T01:49:06.359Z,0.70
2018-12-03T01:52:09.881Z,0.50
2018-12-03T01:55:13.524Z,0.60
2018-12-03T01:58:17.180Z,0.47
2018-12-03T02:01:20.675Z,0.50
2018-12-03T02:04:24.218Z,0.77
2018-12-03T02:07:27.750Z,0.40
2018-12-03T02:10:31.252Z,0.53
2018-12-03T02:13:34.768Z,0.60
2018-12-03T02:16:38.420Z,0.50
2018-12-03T02:19:42.485Z,0.57
2018-12-03T02:22:46.095Z,0.60
2018-12-03T02:25:49.765Z,0.50
2018-12-03T02:28:53.210Z,0.60
2018-12-03T02:31:56.859Z,0.50
2018-12-03T02:35:00.602Z,0.57
2018-12-03T02:38:04.251Z,0.50
2018-12-03T02:41:07.780Z,0.50
2018-12-03T02:44:11.370Z,0.60
2018-12-03T02:47:15.009Z,0.43
2018-12-03T02:50:18.595Z,0.37
2018-12-03T02:53:22.190Z,0.60
2018-12-03T02:56:25.630Z,0.53
2018-12-03T02:59:29.277Z,0.43
2018-12-03T03:02:32.816Z,0.50
2018-12-03T03:05:36.408Z,0.50
2018-12-03T03:08:40.038Z,0.40
2018-12-03T03:11:43.774Z,0.40
2018-12-03T03:14:47.539Z,0.50
2018-12-03T03:17:51.079Z,0.60
2018-12-03T03:20:54.669Z,0.60
2018-12-03T03:23:58.208Z,0.60
2018-12-03T03:27:01.752Z,0.50
2018-12-03T03:30:08.092Z,0.50
2018-12-03T03:33:11.642Z,0.50
2018-12-03T03:36:15.243Z,0.70
2018-12-03T03:39:18.759Z,0.47
2018-12-03T03:42:22.279Z,0.50
2018-12-03T03:45:26.500Z,0.60
2018-12-03T03:48:30.079Z,0.60
2018-12-03T03:51:33.546Z,0.50
2018-12-03T03:54:37.045Z,0.67
2018-12-03T03:57:40.640Z,0.60
2018-12-03T04:00:44.286Z,0.53
2018-12-03T04:03:47.822Z,0.40
2018-12-03T04:06:51.385Z,0.60
2018-12-03T04:09:54.934Z,0.50
2018-12-03T04:12:58.503Z,0.63
2018-12-03T04:16:01.916Z,0.50
2018-12-03T04:19:05.858Z,0.60
2018-12-03T04:22:09.402Z,0.50
2018-12-03T04:25:13.488Z,0.40
2018-12-03T04:28:17.045Z,0.50
2018-12-03T04:31:20.422Z,0.80
2018-12-03T04:34:24.030Z,0.63
2018-12-03T04:37:27.528Z,0.80
2018-12-03T04:40:31.043Z,0.83
2018-12-03T04:43:34.545Z,0.80
2018-12-03T04:46:38.155Z,0.80
2018-12-03T04:49:41.690Z,0.90
2018-12-03T04:52:45.235Z,0.80
2018-12-03T04:55:48.759Z,0.90
2018-12-03T04:58:52.383Z,0.70
2018-12-03T05:01:56.024Z,0.70
2018-12-03T05:04:59.585Z,0.83
2018-12-03T05:08:03.069Z,0.60
2018-12-03T05:11:06.987Z,0.67
2018-12-03T05:14:11.521Z,0.60
2018-12-03T05:17:15.217Z,0.53
2018-12-03T05:20:20.813Z,0.50
2018-12-03T05:23:24.369Z,0.67
2018-12-03T05:26:27.878Z,0.67
2018-12-03T05:29:31.394Z,0.90
2018-12-03T05:32:35.031Z,0.60
2018-12-03T05:35:38.777Z,0.73
2018-12-03T05:38:42.212Z,0.50
2018-12-03T05:41:45.690Z,0.60
2018-12-03T05:44:49.320Z,0.50
2018-12-03T05:47:52.871Z,0.60
2018-12-03T05:50:56.425Z,0.93
2018-12-03T05:54:00.025Z,1.00
2018-12-03T05:57:03.590Z,0.70
2018-12-03T06:00:12.568Z,0.87
2018-12-03T06:03:15.961Z,0.90
2018-12-03T06:06:20.477Z,0.87
2018-12-03T06:09:24.016Z,1.20
2018-12-03T06:12:27.486Z,0.80
2018-12-03T06:15:30.896Z,0.60
2018-12-03T06:18:34.558Z,0.97
2018-12-03T06:21:38.154Z,0.67
2018-12-03T06:24:41.855Z,0.60
2018-12-03T06:27:45.270Z,1.83
2018-12-03T06:30:48.758Z,0.63
2018-12-03T06:33:52.216Z,0.70
2018-12-03T06:36:55.933Z,0.93
2018-12-03T06:39:59.630Z,0.60
2018-12-03T06:43:03.398Z,0.70
2018-12-03T06:46:07.059Z,0.70
2018-12-03T06:49:10.794Z,0.80
2018-12-03T06:52:14.347Z,0.77
2018-12-03T06:55:18.031Z,0.70
2018-12-03T06:58:21.695Z,0.80
2018-12-03T07:01:26.269Z,0.80
2018-12-03T07:04:29.862Z,0.60
2018-12-03T07:07:33.526Z,0.70
2018-12-03T07:10:37.071Z,0.87
2018-12-03T07:13:40.736Z,0.80
2018-12-03T07:16:44.283Z,0.80
2018-12-03T07:19:47.835Z,0.70
2018-12-03T07:22:51.486Z,0.70
2018-12-03T07:25:55.065Z,0.80
2018-12-03T07:28:58.526Z,0.80
2018-12-03T07:32:02.332Z,0.70
2018-12-03T07:35:05.947Z,0.70
2018-12-03T07:38:09.513Z,0.90
2018-12-03T07:41:13.139Z,0.60
2018-12-03T07:44:16.734Z,0.47
2018-12-03T07:47:20.343Z,0.70
2018-12-03T07:50:24.738Z,0.80
2018-12-03T07:53:28.278Z,0.70
2018-12-03T07:56:31.980Z,0.80
2018-12-03T07:59:35.598Z,0.70
2018-12-03T08:02:39.305Z,0.60
2018-12-03T08:05:42.910Z,0.60
2018-12-03T08:08:46.535Z,0.60
2018-12-03T08:11:51.248Z,0.70
2018-12-03T08:14:54.857Z,0.90
2018-12-03T08:18:03.141Z,0.70
2018-12-03T08:21:08.399Z,1.00
2018-12-03T08:24:13.622Z,0.83
2018-12-03T08:27:17.152Z,0.90
2018-12-03T08:30:21.129Z,0.97
2018-12-03T08:33:24.871Z,0.73
2018-12-03T08:36:28.470Z,0.87
2018-12-03T08:39:32.296Z,0.67
2018-12-03T08:42:36.038Z,0.73
2018-12-03T08:45:39.604Z,0.73
2018-12-03T08:48:43.415Z,0.73
2018-12-03T08:51:48.037Z,0.70
2018-12-03T08:54:51.469Z,0.80
2018-12-03T08:57:55.023Z,0.70
2018-12-03T09:00:58.656Z,0.60
2018-12-03T09:04:08.634Z,0.80
2018-12-03T09:07:12.891Z,0.80
2018-12-03T09:10:16.908Z,0.60
2018-12-03T09:13:21.828Z,0.83
2018-12-03T09:16:25.714Z,0.60
2018-12-03T09:19:29.322Z,0.50
2018-12-03T09:22:33.218Z,0.63
2018-12-03T09:25:36.796Z,0.70
2018-12-03T09:28:40.378Z,0.70
2018-12-03T09:31:43.986Z,0.70
2018-12-03T09:34:47.431Z,0.63
2018-12-03T09:37:51.290Z,0.83
2018-12-03T09:41:00.772Z,0.60
2018-12-03T09:44:04.411Z,0.80
2018-12-03T09:47:08.035Z,0.87
2018-12-03T09:50:17.913Z,0.60
2018-12-03T09:53:21.499Z,0.63
2018-12-03T09:56:30.012Z,0.60
2018-12-03T09:59:33.636Z,0.63
2018-12-03T10:02:37.425Z,0.60
2018-12-03T10:05:45.559Z,0.70
2018-12-03T10:08:49.115Z,2.60
2018-12-03T10:11:57.632Z,1.00
2018-12-03T10:15:01.282Z,1.17
2018-12-03T10:18:05.181Z,0.70
2018-12-03T10:21:08.654Z,0.60
2018-12-03T10:24:13.060Z,0.60
2018-12-03T10:27:16.548Z,0.67
2018-12-03T10:30:21.214Z,0.70
2018-12-03T10:33:28.253Z,0.60
2018-12-03T10:36:31.919Z,0.93
2018-12-03T10:39:36.796Z,0.90
2018-12-03T10:42:40.496Z,0.63
2018-12-03T10:45:43.975Z,1.00
2018-12-03T10:48:47.490Z,1.90
2018-12-03T10:51:51.006Z,1.23
2018-12-03T10:54:54.732Z,1.73
2018-12-03T10:57:58.270Z,1.20
2018-12-03T11:01:11.415Z,1.30
2018-12-03T11:04:20.388Z,1.50
2018-12-03T11:07:23.986Z,1.60
2018-12-03T11:10:43.287Z,1.40
2018-12-03T11:13:46.858Z,2.00
2018-12-03T11:16:50.466Z,1.37
2018-12-03T11:19:54.121Z,1.20
2018-12-03T11:22:57.884Z,1.10
2018-12-03T11:26:01.406Z,1.10
2018-12-03T11:29:06.091Z,1.10
2018-12-03T11:32:09.705Z,1.30
2018-12-03T11:35:13.676Z,1.10
2018-12-03T11:38:40.761Z,0.90
2018-12-03T11:41:44.514Z,1.00
2018-12-03T11:44:48.011Z,1.23
2018-12-03T11:47:51.617Z,1.23
2018-12-03T11:50:55.145Z,1.40
2018-12-03T11:53:58.735Z,0.90
2018-12-03T11:57:02.262Z,0.97
2018-12-03T12:00:09.927Z,1.17
2018-12-03T12:03:13.337Z,1.20
2018-12-03T12:06:16.921Z,1.27
2018-12-03T12:09:22.840Z,1.33
2018-12-03T12:12:26.390Z,1.50
2018-12-03T12:15:31.494Z,1.30
2018-12-03T12:18:35.057Z,1.17
2018-12-03T12:21:38.664Z,1.20
2018-12-03T12:24:43.408Z,1.43
2018-12-03T12:27:49.461Z,1.20
2018-12-03T12:30:54.156Z,1.20
2018-12-03T12:33:57.895Z,1.20
2018-12-03T12:37:01.660Z,1.40
2018-12-03T12:40:08.123Z,1.40
2018-12-03T12:43:11.626Z,1.10
2018-12-03T12:46:19.172Z,1.70
2018-12-03T12:49:22.799Z,1.43
2018-12-03T12:52:26.743Z,1.40
2018-12-03T12:55:30.350Z,1.20
2018-12-03T12:58:34.182Z,1.40
2018-12-03T13:01:37.817Z,2.33
2018-12-03T13:04:41.516Z,1.80
2018-12-03T13:07:45.534Z,1.80
2018-12-03T13:10:49.373Z,2.60
2018-12-03T13:13:53.203Z,2.00
2018-12-03T13:16:56.761Z,1.80
2018-12-03T13:20:00.414Z,1.87
2018-12-03T13:23:04.541Z,1.70
2018-12-03T13:26:08.784Z,1.73
2018-12-03T13:29:12.557Z,1.30
2018-12-03T13:32:16.097Z,0.83
2018-12-03T13:35:19.524Z,0.80
2018-12-03T13:38:23.145Z,0.60
2018-12-03T13:41:26.655Z,0.80
2018-12-03T13:44:30.281Z,0.80
2018-12-03T13:47:33.716Z,1.10
2018-12-03T13:50:37.132Z,1.30
2018-12-03T13:53:40.788Z,1.20
2018-12-03T13:56:44.324Z,1.00
2018-12-03T13:59:47.889Z,0.80
2018-12-03T14:02:55.632Z,0.90
2018-12-03T14:06:14.952Z,0.70
2018-12-03T14:09:36.514Z,0.30
2018-12-03T14:12:54.850Z,0.60
2018-12-03T14:16:29.531Z,0.40
2018-12-03T14:19:33.712Z,0.40
2018-12-03T14:22:45.553Z,0.33
2018-12-03T14:25:50.095Z,0.50
2018-12-03T14:28:53.707Z,0.50
2018-12-03T14:31:57.209Z,0.40
2018-12-03T14:35:00.770Z,0.30
2018-12-03T14:38:04.190Z,0.67
2018-12-03T14:41:07.700Z,1.10
2018-12-03T14:44:11.316Z,1.57
2018-12-03T14:47:15.756Z,1.57
2018-12-03T14:50:19.225Z,1.43
2018-12-03T14:53:22.749Z,0.90
2018-12-03T14:56:26.360Z,1.20
2018-12-03T14:59:30.507Z,1.20
2018-12-03T15:02:33.942Z,1.50
2018-12-03T15:05:37.376Z,4.53
2018-12-03T15:08:40.822Z,1.87
2018-12-03T15:11:44.222Z,1.63
2018-12-03T15:14:47.767Z,2.87
2018-12-03T15:17:52.294Z,2.67
2018-12-03T15:20:56.701Z,3.10
2018-12-03T15:24:00.235Z,2.73
2018-12-03T15:27:03.659Z,3.37
2018-12-03T15:30:09.006Z,2.90
2018-12-03T15:33:12.590Z,3.00
2018-12-03T15:36:16.309Z,2.87
2018-12-03T15:39:20.021Z,2.30
2018-12-03T15:42:23.715Z,2.17
2018-12-03T15:45:27.275Z,2.23
2018-12-03T15:48:30.932Z,1.00
2018-12-03T15:51:34.415Z,0.90
2018-12-03T15:54:37.935Z,0.93
2018-12-03T15:57:41.492Z,0.60
2018-12-03T16:00:45.173Z,0.70
2018-12-03T16:03:48.801Z,1.00
2018-12-03T16:06:53.593Z,0.90
2018-12-03T16:09:57.094Z,4.37
2018-12-03T16:13:00.717Z,4.93
2018-12-03T16:16:04.328Z,4.20
2018-12-03T16:19:07.965Z,3.90
2018-12-03T16:22:11.548Z,2.93
2018-12-03T16:25:15.286Z,1.70
2018-12-03T16:28:18.830Z,1.50
2018-12-03T16:31:22.348Z,1.60
2018-12-03T16:34:26.027Z,1.57
2018-12-03T16:37:29.706Z,1.60
2018-12-03T16:40:33.202Z,2.10
2018-12-03T16:43:36.810Z,1.70
2018-12-03T16:46:40.595Z,1.60
2018-12-03T16:49:44.176Z,1.10
2018-12-03T16:52:47.613Z,0.90
2018-12-03T16:55:51.115Z,1.00
2018-12-03T16:58:54.720Z,1.83
2018-12-03T17:01:58.366Z,1.90
2018-12-03T17:05:02.324Z,1.57
2018-12-03T17:08:05.900Z,1.40
2018-12-03T17:11:10.029Z,1.27
2018-12-03T17:14:13.643Z,1.40
2018-12-03T17:17:17.361Z,1.33
2018-12-03T17:20:37.443Z,1.70
2018-12-03T17:23:55.897Z,1.20
2018-12-03T17:26:59.483Z,1.40
2018-12-03T17:30:03.251Z,1.30
2018-12-03T17:33:06.902Z,1.13
2018-12-03T17:36:10.479Z,1.40
2018-12-03T17:39:14.061Z,1.27
2018-12-03T17:42:19.167Z,1.40
2018-12-03T17:45:22.779Z,1.40
2018-12-03T17:48:27.489Z,2.00
2018-12-03T17:51:31.022Z,1.30
2018-12-03T17:54:34.588Z,1.33
2018-12-03T17:57:38.196Z,1.53
2018-12-03T18:00:42.458Z,1.70
2018-12-03T18:03:45.917Z,1.40
2018-12-03T18:06:49.816Z,1.30
2018-12-03T18:09:53.925Z,1.20
2018-12-03T18:12:57.713Z,1.57
2018-12-03T18:16:01.153Z,1.23
2018-12-03T18:19:04.944Z,0.80
2018-12-03T18:22:08.796Z,0.97
2018-12-03T18:25:12.684Z,1.40
2018-12-03T18:28:17.412Z,0.90
2018-12-03T18:31:21.032Z,0.90
2018-12-03T18:34:24.546Z,1.10
2018-12-03T18:37:28.038Z,0.80
2018-12-03T18:40:31.472Z,2.20
2018-12-03T18:43:34.949Z,1.27
2018-12-03T18:46:38.427Z,1.23
2018-12-03T18:49:45.648Z,1.70
2018-12-03T18:52:49.125Z,1.40
2018-12-03T18:55:53.027Z,1.30
2018-12-03T18:59:01.130Z,1.47
2018-12-03T19:02:05.080Z,1.43
2018-12-03T19:05:08.682Z,1.60
2018-12-03T19:08:12.256Z,1.57
2018-12-03T19:11:15.920Z,1.57
2018-12-03T19:14:19.486Z,1.90
2018-12-03T19:17:23.057Z,1.80
2018-12-03T19:20:26.598Z,1.70
2018-12-03T19:23:30.369Z,2.27
2018-12-03T19:26:33.771Z,3.60
2018-12-03T19:29:38.914Z,2.40
2018-12-03T19:32:40.915Z,1.90
2018-12-03T19:35:46.503Z,1.40
2018-12-03T19:38:50.032Z,1.97
2018-12-03T19:41:53.751Z,1.77
2018-12-03T19:44:57.462Z,1.53
2018-12-03T19:48:01.377Z,2.07
2018-12-03T19:51:05.046Z,1.40
2018-12-03T19:54:08.624Z,1.37
2018-12-03T19:57:12.563Z,1.30
2018-12-03T20:00:16.147Z,1.33
2018-12-03T20:03:19.744Z,1.20
2018-12-03T20:06:24.289Z,1.10
2018-12-03T20:09:27.887Z,1.17
2018-12-03T20:12:32.559Z,1.50
2018-12-03T20:15:36.013Z,1.80
2018-12-03T20:18:40.761Z,1.90
2018-12-03T20:21:45.778Z,2.20
2018-12-03T20:24:49.408Z,2.60
2018-12-03T20:27:57.903Z,2.30
2018-12-03T20:31:16.261Z,2.20
2018-12-03T20:34:28.075Z,2.33
2018-12-03T20:37:43.538Z,2.20
2018-12-03T20:40:58.611Z,1.80
2018-12-03T20:44:20.619Z,1.90
2018-12-03T20:47:28.058Z,1.80
2018-12-03T20:51:13.855Z,1.20
2018-12-03T20:54:17.423Z,1.00
2018-12-03T20:57:21.070Z,1.20
2018-12-03T21:00:24.738Z,0.90
2018-12-03T21:03:28.288Z,1.10
2018-12-03T21:06:31.934Z,1.13
2018-12-03T21:09:35.571Z,0.97
2018-12-03T21:12:39.172Z,1.20
2018-12-03T21:15:42.775Z,1.03
2018-12-03T21:18:46.470Z,1.20
2018-12-03T21:21:50.735Z,1.20
2018-12-03T21:24:54.530Z,1.30
2018-12-03T21:27:58.085Z,1.53
2018-12-03T21:31:01.638Z,1.37
2018-12-03T21:34:05.268Z,1.20
2018-12-03T21:37:08.814Z,1.40
2018-12-03T21:40:12.491Z,1.60
2018-12-03T21:43:16.511Z,1.10
2018-12-03T21:46:21.012Z,1.20
2018-12-03T21:49:24.496Z,1.47
2018-12-03T21:52:28.309Z,0.93
2018-12-03T21:55:31.867Z,1.20
2018-12-03T21:58:35.417Z,1.00
2018-12-03T22:01:38.868Z,1.20
2018-12-03T22:04:42.506Z,1.50
2018-12-03T22:07:46.049Z,1.57
2018-12-03T22:10:49.555Z,1.60
2018-12-03T22:13:53.069Z,1.60
2018-12-03T22:16:56.543Z,1.60
2018-12-03T22:20:00.052Z,1.23
2018-12-03T22:23:03.613Z,1.40
2018-12-03T22:26:07.340Z,1.20
2018-12-03T22:29:11.073Z,1.20
2018-12-03T22:32:14.623Z,1.30
2018-12-03T22:35:18.095Z,1.43
2018-12-03T22:38:21.647Z,1.30
2018-12-03T22:41:25.334Z,1.40
2018-12-03T22:44:28.760Z,1.83
2018-12-03T22:47:32.312Z,1.47
2018-12-03T22:50:35.975Z,1.40
2018-12-03T22:53:39.549Z,1.47
2018-12-03T22:56:42.955Z,1.30
2018-12-03T22:59:46.475Z,1.20
2018-12-03T23:02:50.026Z,1.63
2018-12-03T23:05:53.593Z,1.60
2018-12-03T23:08:57.176Z,1.63
2018-12-03T23:12:00.782Z,1.60
2018-12-03T23:15:04.540Z,2.00
2018-12-03T23:18:08.013Z,1.37
2018-12-03T23:21:11.513Z,1.63
2018-12-03T23:24:15.086Z,1.50
2018-12-03T23:27:18.488Z,1.40
2018-12-03T23:30:22.031Z,1.60
2018-12-03T23:33:25.607Z,2.03
2018-12-03T23:36:28.975Z,1.40
2018-12-03T23:39:32.379Z,1.90
2018-12-03T23:42:35.852Z,1.70
2018-12-03T23:45:39.395Z,1.70
2018-12-03T23:48:42.960Z,1.27
2018-12-03T23:51:46.574Z,1.50
2018-12-03T23:54:50.160Z,1.07
2018-12-03T23:57:53.764Z,1.00
